sensor_id;sensor_type;location;lat;lon;timestamp;temperature;humidity
9223;DHT22;7557;51.698;3.942;2023-04-25T00:00:22;8.30;99.90
9223;DHT22;7557;51.698;3.942;2023-04-25T00:02:51;8.30;99.90
9223;DHT22;7557;51.698;3.942;2023-04-25T00:05:18;8.30;99.90
9223;DHT22;7557;51.698;3.942;2023-04-25T00:07:48;8.40;99.90
9223;DHT22;7557;51.698;3.942;2023-04-25T00:10:16;8.30;99.90
9223;DHT22;7557;51.698;3.942;2023-04-25T00:12:43;8.30;99.90
9223;DHT22;7557;51.698;3.942;2023-04-25T00:15:11;8.30;99.90
9223;DHT22;7557;51.698;3.942;2023-04-25T00:17:38;8.20;99.90
9223;DHT22;7557;51.698;3.942;2023-04-25T00:20:08;8.00;99.90
9223;DHT22;7557;51.698;3.942;2023-04-25T00:22:36;7.90;99.90
9223;DHT22;7557;51.698;3.942;2023-04-25T00:25:04;7.90;99.90
9223;DHT22;7557;51.698;3.942;2023-04-25T00:27:32;7.80;99.90
9223;DHT22;7557;51.698;3.942;2023-04-25T00:30:00;7.80;99.90
9223;DHT22;7557;51.698;3.942;2023-04-25T00:32:27;7.80;99.90
9223;DHT22;7557;51.698;3.942;2023-04-25T00:34:54;7.70;99.90
9223;DHT22;7557;51.698;3.942;2023-04-25T00:37:24;7.70;99.90
9223;DHT22;7557;51.698;3.942;2023-04-25T00:39:52;7.80;99.90
9223;DHT22;7557;51.698;3.942;2023-04-25T00:42:21;7.80;99.90
9223;DHT22;7557;51.698;3.942;2023-04-25T00:44:50;7.80;99.90
9223;DHT22;7557;51.698;3.942;2023-04-25T00:50:40;7.70;99.90
9223;DHT22;7557;51.698;3.942;2023-04-25T00:53:09;7.80;99.90
9223;DHT22;7557;51.698;3.942;2023-04-25T00:55:36;7.80;99.90
9223;DHT22;7557;51.698;3.942;2023-04-25T00:58:04;7.80;99.90
9223;DHT22;7557;51.698;3.942;2023-04-25T01:00:31;7.80;99.90
9223;DHT22;7557;51.698;3.942;2023-04-25T01:02:58;7.80;99.90
9223;DHT22;7557;51.698;3.942;2023-04-25T01:05:28;7.70;99.90
9223;DHT22;7557;51.698;3.942;2023-04-25T01:07:55;7.70;99.90
9223;DHT22;7557;51.698;3.942;2023-04-25T01:10:24;7.70;99.90
9223;DHT22;7557;51.698;3.942;2023-04-25T01:12:52;7.70;99.90
9223;DHT22;7557;51.698;3.942;2023-04-25T01:15:19;7.70;99.90
9223;DHT22;7557;51.698;3.942;2023-04-25T01:17:46;7.70;99.90
9223;DHT22;7557;51.698;3.942;2023-04-25T01:20:15;7.70;99.90
9223;DHT22;7557;51.698;3.942;2023-04-25T01:22:44;7.80;99.90
9223;DHT22;7557;51.698;3.942;2023-04-25T01:25:11;7.80;99.90
9223;DHT22;7557;51.698;3.942;2023-04-25T01:27:40;7.80;99.90
9223;DHT22;7557;51.698;3.942;2023-04-25T01:30:08;7.80;99.90
9223;DHT22;7557;51.698;3.942;2023-04-25T01:32:36;7.90;99.90
9223;DHT22;7557;51.698;3.942;2023-04-25T01:35:05;7.90;99.90
9223;DHT22;7557;51.698;3.942;2023-04-25T01:37:35;7.90;99.90
9223;DHT22;7557;51.698;3.942;2023-04-25T01:40:05;7.90;99.90
9223;DHT22;7557;51.698;3.942;2023-04-25T01:42:33;7.90;99.90
9223;DHT22;7557;51.698;3.942;2023-04-25T01:45:00;7.80;99.90
9223;DHT22;7557;51.698;3.942;2023-04-25T01:47:27;7.80;99.90
9223;DHT22;7557;51.698;3.942;2023-04-25T01:49:55;7.80;99.90
9223;DHT22;7557;51.698;3.942;2023-04-25T01:52:22;7.80;99.90
9223;DHT22;7557;51.698;3.942;2023-04-25T01:54:50;7.80;99.90
9223;DHT22;7557;51.698;3.942;2023-04-25T01:57:19;7.80;99.90
9223;DHT22;7557;51.698;3.942;2023-04-25T01:59:46;7.80;99.90
9223;DHT22;7557;51.698;3.942;2023-04-25T02:02:14;7.70;99.90
9223;DHT22;7557;51.698;3.942;2023-04-25T02:04:41;7.70;99.90
9223;DHT22;7557;51.698;3.942;2023-04-25T02:07:08;7.80;99.90
9223;DHT22;7557;51.698;3.942;2023-04-25T02:09:35;7.80;99.90
9223;DHT22;7557;51.698;3.942;2023-04-25T02:12:03;7.80;99.90
9223;DHT22;7557;51.698;3.942;2023-04-25T02:14:32;7.80;99.90
9223;DHT22;7557;51.698;3.942;2023-04-25T02:16:59;7.80;99.90
9223;DHT22;7557;51.698;3.942;2023-04-25T02:19:27;7.90;99.90
9223;DHT22;7557;51.698;3.942;2023-04-25T02:21:54;7.80;99.90
9223;DHT22;7557;51.698;3.942;2023-04-25T02:24:22;7.80;99.90
9223;DHT22;7557;51.698;3.942;2023-04-25T02:26:50;7.80;99.90
9223;DHT22;7557;51.698;3.942;2023-04-25T02:29:18;7.80;99.90
9223;DHT22;7557;51.698;3.942;2023-04-25T02:31:46;7.70;99.90
9223;DHT22;7557;51.698;3.942;2023-04-25T02:34:14;7.70;99.90
9223;DHT22;7557;51.698;3.942;2023-04-25T02:36:41;7.70;99.90
9223;DHT22;7557;51.698;3.942;2023-04-25T02:39:08;7.70;99.90
9223;DHT22;7557;51.698;3.942;2023-04-25T02:41:36;7.70;99.90
9223;DHT22;7557;51.698;3.942;2023-04-25T02:44:03;7.70;99.90
9223;DHT22;7557;51.698;3.942;2023-04-25T02:46:30;7.70;99.90
9223;DHT22;7557;51.698;3.942;2023-04-25T02:49:02;7.60;99.90
9223;DHT22;7557;51.698;3.942;2023-04-25T02:51:30;7.60;99.90
9223;DHT22;7557;51.698;3.942;2023-04-25T02:53:59;7.60;99.90
9223;DHT22;7557;51.698;3.942;2023-04-25T02:56:26;7.60;99.90
9223;DHT22;7557;51.698;3.942;2023-04-25T02:58:53;7.60;99.90
9223;DHT22;7557;51.698;3.942;2023-04-25T03:01:21;7.60;99.90
9223;DHT22;7557;51.698;3.942;2023-04-25T03:03:48;7.60;99.90
9223;DHT22;7557;51.698;3.942;2023-04-25T03:06:17;7.50;99.90
9223;DHT22;7557;51.698;3.942;2023-04-25T03:08:44;7.50;99.90
9223;DHT22;7557;51.698;3.942;2023-04-25T03:11:11;7.50;99.90
9223;DHT22;7557;51.698;3.942;2023-04-25T03:13:38;7.50;99.90
9223;DHT22;7557;51.698;3.942;2023-04-25T03:16:06;7.40;99.90
9223;DHT22;7557;51.698;3.942;2023-04-25T03:18:33;7.20;99.90
9223;DHT22;7557;51.698;3.942;2023-04-25T03:21:00;7.10;99.90
9223;DHT22;7557;51.698;3.942;2023-04-25T03:23:29;7.00;99.90
9223;DHT22;7557;51.698;3.942;2023-04-25T03:25:56;7.00;99.90
9223;DHT22;7557;51.698;3.942;2023-04-25T03:28:23;7.00;99.90
9223;DHT22;7557;51.698;3.942;2023-04-25T03:30:51;7.00;99.90
9223;DHT22;7557;51.698;3.942;2023-04-25T03:33:18;7.10;99.90
9223;DHT22;7557;51.698;3.942;2023-04-25T03:35:45;7.20;99.90
9223;DHT22;7557;51.698;3.942;2023-04-25T03:38:12;7.20;99.90
9223;DHT22;7557;51.698;3.942;2023-04-25T03:40:41;7.30;99.90
9223;DHT22;7557;51.698;3.942;2023-04-25T03:43:09;7.50;99.90
9223;DHT22;7557;51.698;3.942;2023-04-25T03:45:36;7.60;99.90
9223;DHT22;7557;51.698;3.942;2023-04-25T03:48:04;7.60;99.90
9223;DHT22;7557;51.698;3.942;2023-04-25T03:50:31;7.70;99.90
9223;DHT22;7557;51.698;3.942;2023-04-25T03:52:58;7.70;99.90
9223;DHT22;7557;51.698;3.942;2023-04-25T03:55:26;7.70;99.90
9223;DHT22;7557;51.698;3.942;2023-04-25T03:57:54;7.80;99.90
9223;DHT22;7557;51.698;3.942;2023-04-25T04:00:23;7.80;99.90
9223;DHT22;7557;51.698;3.942;2023-04-25T04:02:51;7.80;99.90
9223;DHT22;7557;51.698;3.942;2023-04-25T04:05:18;7.90;99.90
9223;DHT22;7557;51.698;3.942;2023-04-25T04:07:45;7.80;99.90
9223;DHT22;7557;51.698;3.942;2023-04-25T04:10:13;7.70;99.90
9223;DHT22;7557;51.698;3.942;2023-04-25T04:12:40;7.70;99.90
9223;DHT22;7557;51.698;3.942;2023-04-25T04:15:10;7.60;99.90
9223;DHT22;7557;51.698;3.942;2023-04-25T04:17:37;7.60;99.90
9223;DHT22;7557;51.698;3.942;2023-04-25T04:20:06;7.60;99.90
9223;DHT22;7557;51.698;3.942;2023-04-25T04:22:34;7.60;99.90
9223;DHT22;7557;51.698;3.942;2023-04-25T04:25:02;7.60;99.90
9223;DHT22;7557;51.698;3.942;2023-04-25T04:27:32;7.50;99.90
9223;DHT22;7557;51.698;3.942;2023-04-25T04:30:00;7.50;99.90
9223;DHT22;7557;51.698;3.942;2023-04-25T04:32:30;7.50;99.90
9223;DHT22;7557;51.698;3.942;2023-04-25T04:34:59;7.50;99.90
9223;DHT22;7557;51.698;3.942;2023-04-25T04:37:26;7.40;99.90
9223;DHT22;7557;51.698;3.942;2023-04-25T04:39:53;7.30;99.90
9223;DHT22;7557;51.698;3.942;2023-04-25T04:42:21;7.30;99.90
9223;DHT22;7557;51.698;3.942;2023-04-25T04:44:49;7.30;99.90
9223;DHT22;7557;51.698;3.942;2023-04-25T04:47:17;7.30;99.90
9223;DHT22;7557;51.698;3.942;2023-04-25T04:49:47;7.20;99.90
9223;DHT22;7557;51.698;3.942;2023-04-25T04:52:15;7.30;99.90
9223;DHT22;7557;51.698;3.942;2023-04-25T04:54:42;7.30;99.90
9223;DHT22;7557;51.698;3.942;2023-04-25T04:57:10;7.30;99.90
9223;DHT22;7557;51.698;3.942;2023-04-25T04:59:38;7.20;99.90
9223;DHT22;7557;51.698;3.942;2023-04-25T05:02:05;7.20;99.90
9223;DHT22;7557;51.698;3.942;2023-04-25T05:04:32;7.10;99.90
9223;DHT22;7557;51.698;3.942;2023-04-25T05:07:01;7.10;99.90
9223;DHT22;7557;51.698;3.942;2023-04-25T05:09:29;7.00;99.90
9223;DHT22;7557;51.698;3.942;2023-04-25T05:11:57;7.00;99.90
9223;DHT22;7557;51.698;3.942;2023-04-25T05:14:24;7.00;99.90
9223;DHT22;7557;51.698;3.942;2023-04-25T05:16:51;7.10;99.90
9223;DHT22;7557;51.698;3.942;2023-04-25T05:19:18;7.10;99.90
9223;DHT22;7557;51.698;3.942;2023-04-25T05:21:46;7.20;99.90
9223;DHT22;7557;51.698;3.942;2023-04-25T05:24:15;7.20;99.90
9223;DHT22;7557;51.698;3.942;2023-04-25T05:26:42;7.30;99.90
9223;DHT22;7557;51.698;3.942;2023-04-25T05:29:10;7.30;99.90
9223;DHT22;7557;51.698;3.942;2023-04-25T05:31:37;7.40;99.90
9223;DHT22;7557;51.698;3.942;2023-04-25T05:34:04;7.50;99.90
9223;DHT22;7557;51.698;3.942;2023-04-25T05:36:31;7.50;99.90
9223;DHT22;7557;51.698;3.942;2023-04-25T05:38:59;7.60;99.90
9223;DHT22;7557;51.698;3.942;2023-04-25T05:41:27;7.80;99.90
9223;DHT22;7557;51.698;3.942;2023-04-25T05:43:54;7.90;99.90
9223;DHT22;7557;51.698;3.942;2023-04-25T05:46:22;8.10;99.90
9223;DHT22;7557;51.698;3.942;2023-04-25T05:48:49;8.10;99.90
9223;DHT22;7557;51.698;3.942;2023-04-25T05:51:16;8.10;99.90
9223;DHT22;7557;51.698;3.942;2023-04-25T05:53:44;8.10;99.90
9223;DHT22;7557;51.698;3.942;2023-04-25T05:56:11;8.20;99.90
9223;DHT22;7557;51.698;3.942;2023-04-25T05:58:40;8.20;99.90
9223;DHT22;7557;51.698;3.942;2023-04-25T06:01:07;8.20;99.90
9223;DHT22;7557;51.698;3.942;2023-04-25T06:03:35;8.20;99.90
9223;DHT22;7557;51.698;3.942;2023-04-25T06:06:04;8.20;99.90
9223;DHT22;7557;51.698;3.942;2023-04-25T06:08:31;8.20;99.90
9223;DHT22;7557;51.698;3.942;2023-04-25T06:10:59;8.20;99.90
9223;DHT22;7557;51.698;3.942;2023-04-25T06:13:26;8.10;99.90
9223;DHT22;7557;51.698;3.942;2023-04-25T06:15:55;8.10;99.90
9223;DHT22;7557;51.698;3.942;2023-04-25T06:18:22;8.10;99.90
9223;DHT22;7557;51.698;3.942;2023-04-25T06:20:49;8.10;99.90
9223;DHT22;7557;51.698;3.942;2023-04-25T06:23:16;8.20;99.90
9223;DHT22;7557;51.698;3.942;2023-04-25T06:25:43;8.20;99.90
9223;DHT22;7557;51.698;3.942;2023-04-25T06:28:11;8.30;99.90
9223;DHT22;7557;51.698;3.942;2023-04-25T06:30:38;8.30;99.90
9223;DHT22;7557;51.698;3.942;2023-04-25T06:33:06;8.30;99.90
9223;DHT22;7557;51.698;3.942;2023-04-25T06:35:35;8.40;99.90
9223;DHT22;7557;51.698;3.942;2023-04-25T06:38:02;8.40;99.90
9223;DHT22;7557;51.698;3.942;2023-04-25T06:40:29;8.40;99.90
9223;DHT22;7557;51.698;3.942;2023-04-25T06:42:56;8.40;99.90
9223;DHT22;7557;51.698;3.942;2023-04-25T06:45:24;8.40;99.90
9223;DHT22;7557;51.698;3.942;2023-04-25T06:47:51;8.50;99.90
9223;DHT22;7557;51.698;3.942;2023-04-25T06:50:19;8.60;99.90
9223;DHT22;7557;51.698;3.942;2023-04-25T06:52:47;8.60;99.90
9223;DHT22;7557;51.698;3.942;2023-04-25T06:55:14;8.70;99.90
9223;DHT22;7557;51.698;3.942;2023-04-25T06:57:41;8.90;99.90
9223;DHT22;7557;51.698;3.942;2023-04-25T07:00:09;9.10;99.90
9223;DHT22;7557;51.698;3.942;2023-04-25T07:02:37;9.20;99.90
9223;DHT22;7557;51.698;3.942;2023-04-25T07:05:04;9.10;99.90
9223;DHT22;7557;51.698;3.942;2023-04-25T07:07:33;8.90;99.90
9223;DHT22;7557;51.698;3.942;2023-04-25T07:10:00;8.70;99.90
9223;DHT22;7557;51.698;3.942;2023-04-25T07:12:27;8.70;99.90
9223;DHT22;7557;51.698;3.942;2023-04-25T07:14:54;8.60;99.90
9223;DHT22;7557;51.698;3.942;2023-04-25T07:17:21;8.60;99.90
9223;DHT22;7557;51.698;3.942;2023-04-25T07:19:49;8.60;99.90
9223;DHT22;7557;51.698;3.942;2023-04-25T07:22:16;8.70;99.90
9223;DHT22;7557;51.698;3.942;2023-04-25T07:24:44;8.70;99.90
9223;DHT22;7557;51.698;3.942;2023-04-25T07:27:14;8.70;99.90
9223;DHT22;7557;51.698;3.942;2023-04-25T07:29:41;8.80;99.90
9223;DHT22;7557;51.698;3.942;2023-04-25T07:32:08;9.00;99.90
9223;DHT22;7557;51.698;3.942;2023-04-25T07:34:37;9.20;99.90
9223;DHT22;7557;51.698;3.942;2023-04-25T07:37:04;9.30;99.90
9223;DHT22;7557;51.698;3.942;2023-04-25T07:39:32;9.30;99.90
9223;DHT22;7557;51.698;3.942;2023-04-25T07:42:00;9.40;99.90
9223;DHT22;7557;51.698;3.942;2023-04-25T07:44:27;9.00;99.90
9223;DHT22;7557;51.698;3.942;2023-04-25T07:46:56;8.80;99.90
9223;DHT22;7557;51.698;3.942;2023-04-25T07:49:23;8.70;99.90
9223;DHT22;7557;51.698;3.942;2023-04-25T07:51:50;8.70;99.90
9223;DHT22;7557;51.698;3.942;2023-04-25T07:54:17;8.60;99.90
9223;DHT22;7557;51.698;3.942;2023-04-25T07:56:44;8.70;99.90
9223;DHT22;7557;51.698;3.942;2023-04-25T07:59:13;8.70;99.90
9223;DHT22;7557;51.698;3.942;2023-04-25T08:01:40;8.90;99.90
9223;DHT22;7557;51.698;3.942;2023-04-25T08:04:10;8.90;99.90
9223;DHT22;7557;51.698;3.942;2023-04-25T08:06:38;8.80;99.90
9223;DHT22;7557;51.698;3.942;2023-04-25T08:09:06;8.60;99.90
9223;DHT22;7557;51.698;3.942;2023-04-25T08:11:34;8.40;99.90
9223;DHT22;7557;51.698;3.942;2023-04-25T08:14:01;8.30;99.90
9223;DHT22;7557;51.698;3.942;2023-04-25T08:16:30;8.30;99.90
9223;DHT22;7557;51.698;3.942;2023-04-25T08:18:59;8.30;99.90
9223;DHT22;7557;51.698;3.942;2023-04-25T08:21:26;8.30;99.90
9223;DHT22;7557;51.698;3.942;2023-04-25T08:23:53;8.30;99.90
9223;DHT22;7557;51.698;3.942;2023-04-25T08:26:20;8.20;99.90
9223;DHT22;7557;51.698;3.942;2023-04-25T08:28:48;8.20;99.90
9223;DHT22;7557;51.698;3.942;2023-04-25T08:31:15;8.30;99.90
9223;DHT22;7557;51.698;3.942;2023-04-25T08:33:43;8.30;99.90
9223;DHT22;7557;51.698;3.942;2023-04-25T08:36:11;8.40;99.90
9223;DHT22;7557;51.698;3.942;2023-04-25T08:38:38;8.40;99.90
9223;DHT22;7557;51.698;3.942;2023-04-25T08:41:06;8.50;99.90
9223;DHT22;7557;51.698;3.942;2023-04-25T08:43:35;8.60;99.90
9223;DHT22;7557;51.698;3.942;2023-04-25T08:46:02;8.80;99.90
9223;DHT22;7557;51.698;3.942;2023-04-25T08:48:32;8.90;99.90
9223;DHT22;7557;51.698;3.942;2023-04-25T08:51:02;9.00;99.90
9223;DHT22;7557;51.698;3.942;2023-04-25T08:53:31;9.10;99.90
9223;DHT22;7557;51.698;3.942;2023-04-25T08:55:59;9.20;99.90
9223;DHT22;7557;51.698;3.942;2023-04-25T08:58:28;9.30;99.90
9223;DHT22;7557;51.698;3.942;2023-04-25T09:00:55;9.40;99.90
9223;DHT22;7557;51.698;3.942;2023-04-25T09:03:22;9.50;99.90
9223;DHT22;7557;51.698;3.942;2023-04-25T09:05:49;9.60;99.90
9223;DHT22;7557;51.698;3.942;2023-04-25T09:08:20;9.70;99.90
9223;DHT22;7557;51.698;3.942;2023-04-25T09:10:47;9.70;99.90
9223;DHT22;7557;51.698;3.942;2023-04-25T09:13:20;9.80;99.90
9223;DHT22;7557;51.698;3.942;2023-04-25T09:15:51;9.90;99.90
9223;DHT22;7557;51.698;3.942;2023-04-25T09:18:25;9.90;99.90
9223;DHT22;7557;51.698;3.942;2023-04-25T09:20:53;10.00;99.90
9223;DHT22;7557;51.698;3.942;2023-04-25T09:23:23;10.10;99.90
9223;DHT22;7557;51.698;3.942;2023-04-25T09:25:52;10.30;99.90
9223;DHT22;7557;51.698;3.942;2023-04-25T09:28:23;10.50;99.90
9223;DHT22;7557;51.698;3.942;2023-04-25T09:30:55;10.60;99.90
9223;DHT22;7557;51.698;3.942;2023-04-25T09:33:28;10.70;99.90
9223;DHT22;7557;51.698;3.942;2023-04-25T09:36:02;10.80;99.90
9223;DHT22;7557;51.698;3.942;2023-04-25T09:38:32;10.60;99.90
9223;DHT22;7557;51.698;3.942;2023-04-25T09:40:59;10.40;99.90
9223;DHT22;7557;51.698;3.942;2023-04-25T09:43:27;10.10;99.90
9223;DHT22;7557;51.698;3.942;2023-04-25T09:45:55;9.80;99.90
9223;DHT22;7557;51.698;3.942;2023-04-25T09:48:26;9.80;99.90
9223;DHT22;7557;51.698;3.942;2023-04-25T09:51:07;9.80;99.90
9223;DHT22;7557;51.698;3.942;2023-04-25T09:53:37;10.00;99.90
9223;DHT22;7557;51.698;3.942;2023-04-25T09:56:05;10.10;99.90
9223;DHT22;7557;51.698;3.942;2023-04-25T09:58:33;10.00;99.90
9223;DHT22;7557;51.698;3.942;2023-04-25T10:01:03;10.10;99.90
9223;DHT22;7557;51.698;3.942;2023-04-25T10:03:32;10.10;99.90
9223;DHT22;7557;51.698;3.942;2023-04-25T10:06:02;10.30;99.90
9223;DHT22;7557;51.698;3.942;2023-04-25T10:08:32;10.50;99.90
9223;DHT22;7557;51.698;3.942;2023-04-25T10:11:03;10.50;99.90
9223;DHT22;7557;51.698;3.942;2023-04-25T10:13:31;10.60;99.90
9223;DHT22;7557;51.698;3.942;2023-04-25T10:16:00;10.60;99.90
9223;DHT22;7557;51.698;3.942;2023-04-25T10:18:29;10.60;99.90
9223;DHT22;7557;51.698;3.942;2023-04-25T10:20:57;10.60;99.90
9223;DHT22;7557;51.698;3.942;2023-04-25T10:23:25;10.70;99.90
9223;DHT22;7557;51.698;3.942;2023-04-25T10:25:53;10.70;99.90
9223;DHT22;7557;51.698;3.942;2023-04-25T10:28:22;10.60;99.90
9223;DHT22;7557;51.698;3.942;2023-04-25T10:30:59;10.60;99.90
9223;DHT22;7557;51.698;3.942;2023-04-25T10:33:32;10.60;99.90
9223;DHT22;7557;51.698;3.942;2023-04-25T10:36:09;10.60;99.90
9223;DHT22;7557;51.698;3.942;2023-04-25T10:38:37;10.60;99.90
9223;DHT22;7557;51.698;3.942;2023-04-25T10:41:05;10.60;99.90
9223;DHT22;7557;51.698;3.942;2023-04-25T10:43:37;10.50;99.90
9223;DHT22;7557;51.698;3.942;2023-04-25T10:46:16;10.40;99.90
9223;DHT22;7557;51.698;3.942;2023-04-25T10:48:49;10.40;99.90
9223;DHT22;7557;51.698;3.942;2023-04-25T10:51:18;10.40;99.90
9223;DHT22;7557;51.698;3.942;2023-04-25T10:53:46;10.50;99.90
9223;DHT22;7557;51.698;3.942;2023-04-25T10:56:17;10.60;99.90
9223;DHT22;7557;51.698;3.942;2023-04-25T10:58:48;10.60;99.90
9223;DHT22;7557;51.698;3.942;2023-04-25T11:01:19;10.80;99.90
9223;DHT22;7557;51.698;3.942;2023-04-25T11:03:47;10.80;99.90
9223;DHT22;7557;51.698;3.942;2023-04-25T11:06:22;10.80;99.90
9223;DHT22;7557;51.698;3.942;2023-04-25T11:08:50;10.90;99.90
9223;DHT22;7557;51.698;3.942;2023-04-25T11:11:18;11.00;99.90
9223;DHT22;7557;51.698;3.942;2023-04-25T11:13:49;11.00;99.90
9223;DHT22;7557;51.698;3.942;2023-04-25T11:16:16;11.00;99.90
9223;DHT22;7557;51.698;3.942;2023-04-25T11:18:44;11.10;99.90
9223;DHT22;7557;51.698;3.942;2023-04-25T11:21:11;11.20;99.90
9223;DHT22;7557;51.698;3.942;2023-04-25T11:23:39;11.20;99.90
9223;DHT22;7557;51.698;3.942;2023-04-25T11:26:06;11.10;99.90
9223;DHT22;7557;51.698;3.942;2023-04-25T11:28:34;11.10;99.90
9223;DHT22;7557;51.698;3.942;2023-04-25T11:31:04;11.00;99.90
9223;DHT22;7557;51.698;3.942;2023-04-25T11:33:32;10.80;99.90
9223;DHT22;7557;51.698;3.942;2023-04-25T11:35:59;10.80;99.90
9223;DHT22;7557;51.698;3.942;2023-04-25T11:38:27;10.80;99.90
9223;DHT22;7557;51.698;3.942;2023-04-25T11:40:55;10.80;99.90
9223;DHT22;7557;51.698;3.942;2023-04-25T11:43:22;10.90;99.90
9223;DHT22;7557;51.698;3.942;2023-04-25T11:45:50;11.00;99.90
9223;DHT22;7557;51.698;3.942;2023-04-25T11:48:19;11.00;99.90
9223;DHT22;7557;51.698;3.942;2023-04-25T11:50:47;11.10;99.90
9223;DHT22;7557;51.698;3.942;2023-04-25T11:53:14;11.20;99.90
9223;DHT22;7557;51.698;3.942;2023-04-25T11:55:41;11.20;99.90
9223;DHT22;7557;51.698;3.942;2023-04-25T11:58:08;11.20;99.90
9223;DHT22;7557;51.698;3.942;2023-04-25T12:00:36;11.30;99.90
9223;DHT22;7557;51.698;3.942;2023-04-25T12:03:03;11.30;99.90
9223;DHT22;7557;51.698;3.942;2023-04-25T12:05:32;11.30;99.90
9223;DHT22;7557;51.698;3.942;2023-04-25T12:08:12;11.40;99.90
9223;DHT22;7557;51.698;3.942;2023-04-25T12:10:40;11.30;99.90
9223;DHT22;7557;51.698;3.942;2023-04-25T12:13:19;11.30;99.90
9223;DHT22;7557;51.698;3.942;2023-04-25T12:15:46;11.30;99.90
9223;DHT22;7557;51.698;3.942;2023-04-25T12:18:14;11.40;99.90
9223;DHT22;7557;51.698;3.942;2023-04-25T12:20:43;11.40;99.90
9223;DHT22;7557;51.698;3.942;2023-04-25T12:23:10;11.40;99.90
9223;DHT22;7557;51.698;3.942;2023-04-25T12:25:39;11.40;99.90
9223;DHT22;7557;51.698;3.942;2023-04-25T12:28:11;11.50;99.90
9223;DHT22;7557;51.698;3.942;2023-04-25T12:30:57;11.50;99.90
9223;DHT22;7557;51.698;3.942;2023-04-25T12:33:26;11.40;99.90
9223;DHT22;7557;51.698;3.942;2023-04-25T12:35:55;11.30;99.90
9223;DHT22;7557;51.698;3.942;2023-04-25T12:38:24;11.20;99.90
9223;DHT22;7557;51.698;3.942;2023-04-25T12:40:51;11.30;99.90
9223;DHT22;7557;51.698;3.942;2023-04-25T12:43:18;11.30;99.90
9223;DHT22;7557;51.698;3.942;2023-04-25T12:45:47;11.30;99.90
9223;DHT22;7557;51.698;3.942;2023-04-25T12:48:15;11.30;99.90
9223;DHT22;7557;51.698;3.942;2023-04-25T12:50:43;11.20;99.90
9223;DHT22;7557;51.698;3.942;2023-04-25T12:53:16;11.20;99.90
9223;DHT22;7557;51.698;3.942;2023-04-25T12:55:43;11.30;99.90
9223;DHT22;7557;51.698;3.942;2023-04-25T12:58:11;11.20;99.90
9223;DHT22;7557;51.698;3.942;2023-04-25T13:00:39;11.20;99.90
9223;DHT22;7557;51.698;3.942;2023-04-25T13:03:06;11.30;99.90
9223;DHT22;7557;51.698;3.942;2023-04-25T13:05:34;11.40;99.90
9223;DHT22;7557;51.698;3.942;2023-04-25T13:08:01;11.50;99.90
9223;DHT22;7557;51.698;3.942;2023-04-25T13:10:30;11.50;99.90
9223;DHT22;7557;51.698;3.942;2023-04-25T13:12:59;11.30;99.90
9223;DHT22;7557;51.698;3.942;2023-04-25T13:15:28;11.10;99.90
9223;DHT22;7557;51.698;3.942;2023-04-25T13:17:55;10.90;99.90
9223;DHT22;7557;51.698;3.942;2023-04-25T13:20:23;10.90;99.90
9223;DHT22;7557;51.698;3.942;2023-04-25T13:22:50;11.00;99.90
9223;DHT22;7557;51.698;3.942;2023-04-25T13:25:18;11.10;99.90
9223;DHT22;7557;51.698;3.942;2023-04-25T13:27:46;11.10;99.90
9223;DHT22;7557;51.698;3.942;2023-04-25T13:30:14;11.00;99.90
9223;DHT22;7557;51.698;3.942;2023-04-25T13:32:41;11.00;99.90
9223;DHT22;7557;51.698;3.942;2023-04-25T13:35:10;11.00;99.90
9223;DHT22;7557;51.698;3.942;2023-04-25T13:37:38;11.00;99.90
9223;DHT22;7557;51.698;3.942;2023-04-25T13:40:07;11.10;99.90
9223;DHT22;7557;51.698;3.942;2023-04-25T13:42:35;11.10;99.90
9223;DHT22;7557;51.698;3.942;2023-04-25T13:45:04;11.10;99.90
9223;DHT22;7557;51.698;3.942;2023-04-25T13:47:31;11.20;99.90
9223;DHT22;7557;51.698;3.942;2023-04-25T13:49:58;11.10;99.90
9223;DHT22;7557;51.698;3.942;2023-04-25T13:52:25;11.10;99.90
9223;DHT22;7557;51.698;3.942;2023-04-25T13:54:53;11.10;99.90
9223;DHT22;7557;51.698;3.942;2023-04-25T13:57:20;11.10;99.90
9223;DHT22;7557;51.698;3.942;2023-04-25T13:59:47;11.10;99.90
9223;DHT22;7557;51.698;3.942;2023-04-25T14:02:16;11.10;99.90
9223;DHT22;7557;51.698;3.942;2023-04-25T14:04:43;11.10;99.90
9223;DHT22;7557;51.698;3.942;2023-04-25T14:07:10;11.00;99.90
9223;DHT22;7557;51.698;3.942;2023-04-25T14:09:38;11.00;99.90
9223;DHT22;7557;51.698;3.942;2023-04-25T14:12:05;10.90;99.90
9223;DHT22;7557;51.698;3.942;2023-04-25T14:14:32;10.90;99.90
9223;DHT22;7557;51.698;3.942;2023-04-25T14:17:00;10.80;99.90
9223;DHT22;7557;51.698;3.942;2023-04-25T14:19:28;10.80;99.90
9223;DHT22;7557;51.698;3.942;2023-04-25T14:21:56;10.90;99.90
9223;DHT22;7557;51.698;3.942;2023-04-25T14:24:23;11.00;99.90
9223;DHT22;7557;51.698;3.942;2023-04-25T14:26:50;11.10;99.90
9223;DHT22;7557;51.698;3.942;2023-04-25T14:29:18;11.00;99.90
9223;DHT22;7557;51.698;3.942;2023-04-25T14:31:45;11.10;99.90
9223;DHT22;7557;51.698;3.942;2023-04-25T14:34:12;11.10;99.90
9223;DHT22;7557;51.698;3.942;2023-04-25T14:36:41;11.10;99.90
9223;DHT22;7557;51.698;3.942;2023-04-25T14:39:08;11.00;99.90
9223;DHT22;7557;51.698;3.942;2023-04-25T14:41:35;10.80;99.90
9223;DHT22;7557;51.698;3.942;2023-04-25T14:44:03;10.60;99.90
9223;DHT22;7557;51.698;3.942;2023-04-25T14:46:30;10.60;99.90
9223;DHT22;7557;51.698;3.942;2023-04-25T14:48:58;10.50;99.90
9223;DHT22;7557;51.698;3.942;2023-04-25T14:51:25;10.50;99.90
9223;DHT22;7557;51.698;3.942;2023-04-25T14:53:56;10.60;99.90
9223;DHT22;7557;51.698;3.942;2023-04-25T14:56:24;10.70;99.90
9223;DHT22;7557;51.698;3.942;2023-04-25T14:58:52;10.80;99.90
9223;DHT22;7557;51.698;3.942;2023-04-25T15:01:19;10.90;99.90
9223;DHT22;7557;51.698;3.942;2023-04-25T15:03:47;11.00;99.90
9223;DHT22;7557;51.698;3.942;2023-04-25T15:06:14;11.10;99.90
9223;DHT22;7557;51.698;3.942;2023-04-25T15:08:42;11.00;99.90
9223;DHT22;7557;51.698;3.942;2023-04-25T15:11:10;11.00;99.90
9223;DHT22;7557;51.698;3.942;2023-04-25T15:13:38;10.80;99.90
9223;DHT22;7557;51.698;3.942;2023-04-25T15:16:05;10.80;99.90
9223;DHT22;7557;51.698;3.942;2023-04-25T15:18:33;10.80;99.90
9223;DHT22;7557;51.698;3.942;2023-04-25T15:21:00;10.90;99.90
9223;DHT22;7557;51.698;3.942;2023-04-25T15:23:27;10.90;99.90
9223;DHT22;7557;51.698;3.942;2023-04-25T15:25:54;10.90;99.90
9223;DHT22;7557;51.698;3.942;2023-04-25T15:28:23;10.90;99.90
9223;DHT22;7557;51.698;3.942;2023-04-25T15:30:50;10.80;99.90
9223;DHT22;7557;51.698;3.942;2023-04-25T15:33:18;10.80;99.90
9223;DHT22;7557;51.698;3.942;2023-04-25T15:35:45;10.60;99.90
9223;DHT22;7557;51.698;3.942;2023-04-25T15:38:12;10.50;99.90
9223;DHT22;7557;51.698;3.942;2023-04-25T15:40:40;10.60;99.90
9223;DHT22;7557;51.698;3.942;2023-04-25T15:43:07;10.60;99.90
9223;DHT22;7557;51.698;3.942;2023-04-25T15:45:41;10.60;99.90
9223;DHT22;7557;51.698;3.942;2023-04-25T15:48:10;10.50;99.90
9223;DHT22;7557;51.698;3.942;2023-04-25T15:50:37;10.60;99.90
9223;DHT22;7557;51.698;3.942;2023-04-25T15:53:04;10.70;99.90
9223;DHT22;7557;51.698;3.942;2023-04-25T15:55:32;10.80;99.90
9223;DHT22;7557;51.698;3.942;2023-04-25T15:57:59;10.80;99.90
9223;DHT22;7557;51.698;3.942;2023-04-25T16:00:26;10.90;99.90
9223;DHT22;7557;51.698;3.942;2023-04-25T16:02:55;10.90;99.90
9223;DHT22;7557;51.698;3.942;2023-04-25T16:05:23;10.90;99.90
9223;DHT22;7557;51.698;3.942;2023-04-25T16:07:50;10.80;99.90
9223;DHT22;7557;51.698;3.942;2023-04-25T16:10:18;10.70;99.90
9223;DHT22;7557;51.698;3.942;2023-04-25T16:12:46;10.60;99.90
9223;DHT22;7557;51.698;3.942;2023-04-25T16:15:14;10.60;99.90
9223;DHT22;7557;51.698;3.942;2023-04-25T16:17:41;10.60;99.90
9223;DHT22;7557;51.698;3.942;2023-04-25T16:20:11;10.60;99.90